KIDA/IDA METAR and TAF weather

Enter ICAO airport designator
Station Type Date Time Source
KIDA METAR 2020/06/03 22:53 UTC NOAA

KIDA 032253Z 26014G25KT 10SM SCT110 27/06 A2999 RMK AO2 PK WND 26028/2201 SLP113 T02670056


Station Type Date Time Source
KIDA Decoded METAR 2020/06/03 22:53 UTC NOAA

IDAHO FALLS REGIONAL AIRPORT, ID, United States (KIDA) 43-31N 112-04W 1453M
Jun 03, 2020 - 06:53 PM EDT / 2020.06.03 2253 UTC
Wind: from the W (260 degrees) at 16 MPH (14 KT) gusting to 29 MPH (25 KT):0
Visibility: 10 mile(s):0
Sky conditions: partly cloudy
Temperature: 80.1 F (26.7 C)
Dew Point: 42.1 F (5.6 C)
Relative Humidity: 25%
Pressure (altimeter): 29.99 in. Hg (1015 hPa)
ob: KIDA 032253Z 26014G25KT 10SM SCT110 27/06 A2999 RMK AO2 PK WND 26028/2201 SLP113 T02670056
cycle: 23

Station Type Date Time Source
KIDA TAF 2020/06/03 21:27 UTC NOAA

TAF
AMD KIDA 032124Z 0321/0418 22015G25KT P6SM VCTS SCT090CB SCT150
TEMPO 0321/0323 VRB20G35KT P6SM -SHRA SCT090 SCT150
FM040300 21009KT P6SM FEW120 BKN200
FM041500 21015G25KT P6SM SCT090 BKN150

Example: see airport list